sensor_id;sensor_type;location;lat;lon;timestamp;pressure;altitude;pressure_sealevel;temperature;humidity
84374;BME280;74563;52.206;14.630;2024-03-02T00:02:25;100429.38;;;14.83;73.06
84374;BME280;74563;52.206;14.630;2024-03-02T00:04:50;100433.16;;;14.68;73.54
84374;BME280;74563;52.206;14.630;2024-03-02T00:07:15;100435.03;;;14.67;73.75
84374;BME280;74563;52.206;14.630;2024-03-02T00:09:41;100403.59;;;15.23;70.54
84374;BME280;74563;52.206;14.630;2024-03-02T00:12:06;100429.66;;;14.95;72.50
84374;BME280;74563;52.206;14.630;2024-03-02T00:14:32;100431.06;;;14.91;72.90
84374;BME280;74563;52.206;14.630;2024-03-02T00:16:57;100427.19;;;16.01;68.58
84374;BME280;74563;52.206;14.630;2024-03-02T00:19:22;100396.78;;;15.68;69.40
84374;BME280;74563;52.206;14.630;2024-03-02T00:21:48;100431.41;;;15.57;70.30
84374;BME280;74563;52.206;14.630;2024-03-02T00:24:34;100425.22;;;15.63;70.04
84374;BME280;74563;52.206;14.630;2024-03-02T00:27:01;100428.47;;;16.25;68.42
84374;BME280;74563;52.206;14.630;2024-03-02T00:29:27;100425.34;;;16.15;68.34
84374;BME280;74563;52.206;14.630;2024-03-02T00:31:52;100424.31;;;16.16;68.18
84374;BME280;74563;52.206;14.630;2024-03-02T00:34:18;100433.63;;;16.07;68.99
84374;BME280;74563;52.206;14.630;2024-03-02T00:36:44;100428.03;;;16.15;68.39
84374;BME280;74563;52.206;14.630;2024-03-02T00:39:12;100425.50;;;15.81;69.74
84374;BME280;74563;52.206;14.630;2024-03-02T00:41:40;100421.53;;;15.64;70.68
84374;BME280;74563;52.206;14.630;2024-03-02T00:44:12;100418.88;;;15.77;70.28
84374;BME280;74563;52.206;14.630;2024-03-02T00:46:38;100424.22;;;15.70;70.57
84374;BME280;74563;52.206;14.630;2024-03-02T00:51:36;100408.41;;;15.00;73.12
84374;BME280;74563;52.206;14.630;2024-03-02T00:54:04;100420.59;;;15.37;72.57
84374;BME280;74563;52.206;14.630;2024-03-02T00:56:30;100415.22;;;14.68;75.38
84374;BME280;74563;52.206;14.630;2024-03-02T00:58:56;100417.56;;;15.12;73.35
84374;BME280;74563;52.206;14.630;2024-03-02T01:01:21;100412.78;;;15.48;71.85
84374;BME280;74563;52.206;14.630;2024-03-02T01:03:47;100416.91;;;15.44;71.86
84374;BME280;74563;52.206;14.630;2024-03-02T01:06:12;100402.75;;;15.64;70.29
84374;BME280;74563;52.206;14.630;2024-03-02T01:08:38;100414.25;;;15.10;73.44
84374;BME280;74563;52.206;14.630;2024-03-02T01:11:04;100419.41;;;14.71;75.51
84374;BME280;74563;52.206;14.630;2024-03-02T01:13:29;100406.06;;;14.84;74.85
84374;BME280;74563;52.206;14.630;2024-03-02T01:15:55;100417.63;;;15.25;73.47
84374;BME280;74563;52.206;14.630;2024-03-02T01:18:21;100413.72;;;15.28;73.05
84374;BME280;74563;52.206;14.630;2024-03-02T01:20:47;100407.84;;;15.04;74.76
84374;BME280;74563;52.206;14.630;2024-03-02T01:23:12;100402.97;;;14.52;76.84
84374;BME280;74563;52.206;14.630;2024-03-02T01:25:38;100390.44;;;14.60;75.89
84374;BME280;74563;52.206;14.630;2024-03-02T01:28:04;100401.03;;;15.02;75.26
84374;BME280;74563;52.206;14.630;2024-03-02T01:30:29;100405.06;;;15.32;73.92
84374;BME280;74563;52.206;14.630;2024-03-02T01:32:54;100407.19;;;14.68;76.08
84374;BME280;74563;52.206;14.630;2024-03-02T01:35:20;100409.91;;;14.47;77.86
84374;BME280;74563;52.206;14.630;2024-03-02T01:37:45;100401.34;;;15.27;74.01
84374;BME280;74563;52.206;14.630;2024-03-02T01:40:10;100383.84;;;15.37;72.96
84374;BME280;74563;52.206;14.630;2024-03-02T01:42:36;100397.22;;;15.98;71.02
84374;BME280;74563;52.206;14.630;2024-03-02T01:45:03;100374.31;;;16.09;69.43
84374;BME280;74563;52.206;14.630;2024-03-02T01:47:29;100398.47;;;16.02;70.27
84374;BME280;74563;52.206;14.630;2024-03-02T01:49:54;100391.41;;;15.75;71.33
84374;BME280;74563;52.206;14.630;2024-03-02T01:52:19;100393.28;;;15.81;70.90
84374;BME280;74563;52.206;14.630;2024-03-02T01:54:44;100396.19;;;15.32;72.78
84374;BME280;74563;52.206;14.630;2024-03-02T01:57:09;100395.56;;;15.23;73.76
84374;BME280;74563;52.206;14.630;2024-03-02T01:59:35;100398.06;;;14.90;75.37
84374;BME280;74563;52.206;14.630;2024-03-02T02:02:00;100400.22;;;15.08;74.88
84374;BME280;74563;52.206;14.630;2024-03-02T02:04:26;100372.38;;;14.75;75.15
84374;BME280;74563;52.206;14.630;2024-03-02T02:06:53;100390.56;;;15.20;74.38
84374;BME280;74563;52.206;14.630;2024-03-02T02:09:18;100390.69;;;14.99;75.33
84374;BME280;74563;52.206;14.630;2024-03-02T02:11:44;100370.44;;;14.90;75.05
84374;BME280;74563;52.206;14.630;2024-03-02T02:14:09;100387.56;;;15.36;73.78
84374;BME280;74563;52.206;14.630;2024-03-02T02:16:35;100377.84;;;15.35;73.49
84374;BME280;74563;52.206;14.630;2024-03-02T02:19:00;100383.22;;;15.42;73.26
84374;BME280;74563;52.206;14.630;2024-03-02T02:21:25;100380.69;;;15.81;71.58
84374;BME280;74563;52.206;14.630;2024-03-02T02:23:51;100372.88;;;16.13;70.00
84374;BME280;74563;52.206;14.630;2024-03-02T02:26:16;100370.94;;;15.61;72.17
84374;BME280;74563;52.206;14.630;2024-03-02T02:28:41;100377.34;;;15.66;71.65
84374;BME280;74563;52.206;14.630;2024-03-02T02:31:15;100374.13;;;15.30;73.71
84374;BME280;74563;52.206;14.630;2024-03-02T02:33:41;100353.69;;;15.35;73.08
84374;BME280;74563;52.206;14.630;2024-03-02T02:36:07;100377.81;;;15.83;71.46
84374;BME280;74563;52.206;14.630;2024-03-02T02:38:36;100377.00;;;15.95;70.85
84374;BME280;74563;52.206;14.630;2024-03-02T02:41:03;100342.06;;;16.15;68.84
84374;BME280;74563;52.206;14.630;2024-03-02T02:43:28;100373.50;;;16.21;69.73
84374;BME280;74563;52.206;14.630;2024-03-02T02:45:53;100371.38;;;16.89;66.67
84374;BME280;74563;52.206;14.630;2024-03-02T02:48:18;100373.69;;;17.36;64.72
84374;BME280;74563;52.206;14.630;2024-03-02T02:50:44;100373.63;;;16.92;66.55
84374;BME280;74563;52.206;14.630;2024-03-02T02:53:09;100364.22;;;16.17;69.21
84374;BME280;74563;52.206;14.630;2024-03-02T02:55:35;100369.53;;;15.91;70.97
84374;BME280;74563;52.206;14.630;2024-03-02T02:58:00;100358.53;;;15.53;72.17
84374;BME280;74563;52.206;14.630;2024-03-02T03:00:25;100375.31;;;15.75;71.32
84374;BME280;74563;52.206;14.630;2024-03-02T03:02:50;100371.53;;;15.49;73.11
84374;BME280;74563;52.206;14.630;2024-03-02T03:05:16;100380.47;;;15.16;74.62
84374;BME280;74563;52.206;14.630;2024-03-02T03:07:42;100385.53;;;14.97;75.08
84374;BME280;74563;52.206;14.630;2024-03-02T03:10:07;100359.63;;;15.24;73.13
84374;BME280;74563;52.206;14.630;2024-03-02T03:12:34;100391.09;;;15.43;73.28
84374;BME280;74563;52.206;14.630;2024-03-02T03:14:59;100377.56;;;15.65;72.59
84374;BME280;74563;52.206;14.630;2024-03-02T03:17:25;100338.44;;;15.42;71.52
84374;BME280;74563;52.206;14.630;2024-03-02T03:19:50;100349.13;;;16.03;69.96
84374;BME280;74563;52.206;14.630;2024-03-02T03:22:15;100375.34;;;16.67;67.74
84374;BME280;74563;52.206;14.630;2024-03-02T03:24:41;100365.84;;;16.64;67.52
84374;BME280;74563;52.206;14.630;2024-03-02T03:27:06;100372.25;;;16.63;67.76
84374;BME280;74563;52.206;14.630;2024-03-02T03:29:31;100388.97;;;16.32;68.42
84374;BME280;74563;52.206;14.630;2024-03-02T03:31:56;100378.00;;;15.88;71.08
84374;BME280;74563;52.206;14.630;2024-03-02T03:34:22;100381.56;;;16.28;69.12
84374;BME280;74563;52.206;14.630;2024-03-02T03:36:47;100378.47;;;16.18;69.27
84374;BME280;74563;52.206;14.630;2024-03-02T03:39:12;100381.31;;;16.82;67.01
84374;BME280;74563;52.206;14.630;2024-03-02T03:41:37;100385.69;;;16.43;68.42
84374;BME280;74563;52.206;14.630;2024-03-02T03:44:03;100384.44;;;16.13;69.22
84374;BME280;74563;52.206;14.630;2024-03-02T03:46:28;100383.34;;;15.62;71.85
84374;BME280;74563;52.206;14.630;2024-03-02T03:48:54;100374.06;;;15.84;71.08
84374;BME280;74563;52.206;14.630;2024-03-02T03:51:21;100383.78;;;15.85;70.44
84374;BME280;74563;52.206;14.630;2024-03-02T03:53:47;100383.63;;;15.93;70.44
84374;BME280;74563;52.206;14.630;2024-03-02T03:56:12;100394.19;;;15.40;72.37
84374;BME280;74563;52.206;14.630;2024-03-02T03:58:38;100380.50;;;15.96;69.78
84374;BME280;74563;52.206;14.630;2024-03-02T04:01:03;100359.50;;;15.45;71.27
84374;BME280;74563;52.206;14.630;2024-03-02T04:03:28;100365.63;;;16.26;67.97
84374;BME280;74563;52.206;14.630;2024-03-02T04:05:54;100383.44;;;16.14;68.42
84374;BME280;74563;52.206;14.630;2024-03-02T04:08:19;100359.22;;;16.60;66.27
84374;BME280;74563;52.206;14.630;2024-03-02T04:10:44;100385.19;;;16.99;64.89
84374;BME280;74563;52.206;14.630;2024-03-02T04:13:10;100388.75;;;15.94;69.20
84374;BME280;74563;52.206;14.630;2024-03-02T04:15:35;100393.09;;;15.82;69.52
84374;BME280;74563;52.206;14.630;2024-03-02T04:18:00;100370.59;;;15.23;71.92
84374;BME280;74563;52.206;14.630;2024-03-02T04:20:25;100391.88;;;16.11;69.17
84374;BME280;74563;52.206;14.630;2024-03-02T04:22:51;100383.63;;;16.19;68.94
84374;BME280;74563;52.206;14.630;2024-03-02T04:25:16;100387.56;;;16.63;66.89
84374;BME280;74563;52.206;14.630;2024-03-02T04:27:41;100390.41;;;15.89;69.99
84374;BME280;74563;52.206;14.630;2024-03-02T04:30:07;100390.00;;;16.12;69.16
84374;BME280;74563;52.206;14.630;2024-03-02T04:32:32;100386.06;;;15.81;70.15
84374;BME280;74563;52.206;14.630;2024-03-02T04:34:57;100389.16;;;15.85;70.17
84374;BME280;74563;52.206;14.630;2024-03-02T04:37:22;100383.97;;;15.16;72.13
84374;BME280;74563;52.206;14.630;2024-03-02T04:39:48;100398.41;;;15.15;73.14
84374;BME280;74563;52.206;14.630;2024-03-02T04:42:13;100370.44;;;14.96;73.46
84374;BME280;74563;52.206;14.630;2024-03-02T04:44:38;100398.00;;;15.18;73.10
84374;BME280;74563;52.206;14.630;2024-03-02T04:47:04;100396.00;;;15.27;72.62
84374;BME280;74563;52.206;14.630;2024-03-02T04:49:29;100396.13;;;15.60;71.28
84374;BME280;74563;52.206;14.630;2024-03-02T04:51:55;100401.94;;;15.22;72.71
84374;BME280;74563;52.206;14.630;2024-03-02T04:54:20;100402.47;;;15.04;73.19
84374;BME280;74563;52.206;14.630;2024-03-02T04:56:45;100400.94;;;14.89;74.13
84374;BME280;74563;52.206;14.630;2024-03-02T04:59:15;100398.19;;;14.76;74.35
84374;BME280;74563;52.206;14.630;2024-03-02T05:01:41;100407.84;;;14.21;77.41
84374;BME280;74563;52.206;14.630;2024-03-02T05:04:06;100372.94;;;13.66;78.09
84374;BME280;74563;52.206;14.630;2024-03-02T05:06:31;100419.94;;;13.96;78.26
84374;BME280;74563;52.206;14.630;2024-03-02T05:08:56;100414.22;;;13.99;78.37
84374;BME280;74563;52.206;14.630;2024-03-02T05:11:22;100415.47;;;14.24;76.89
84374;BME280;74563;52.206;14.630;2024-03-02T05:14:03;100414.97;;;14.91;74.00
84374;BME280;74563;52.206;14.630;2024-03-02T05:16:29;100413.69;;;14.52;75.27
84374;BME280;74563;52.206;14.630;2024-03-02T05:18:54;100413.72;;;14.87;74.06
84374;BME280;74563;52.206;14.630;2024-03-02T05:21:19;100429.22;;;14.91;73.76
84374;BME280;74563;52.206;14.630;2024-03-02T05:23:45;100426.13;;;14.94;73.23
84374;BME280;74563;52.206;14.630;2024-03-02T05:26:10;100430.75;;;15.07;73.49
84374;BME280;74563;52.206;14.630;2024-03-02T05:28:38;100354.78;;;15.47;70.31
84374;BME280;74563;52.206;14.630;2024-03-02T05:31:03;100401.94;;;15.22;71.23
84374;BME280;74563;52.206;14.630;2024-03-02T05:33:28;100430.41;;;15.64;71.19
84374;BME280;74563;52.206;14.630;2024-03-02T05:35:56;100438.78;;;15.48;71.78
84374;BME280;74563;52.206;14.630;2024-03-02T05:38:21;100433.88;;;15.51;71.16
84374;BME280;74563;52.206;14.630;2024-03-02T05:40:46;100444.75;;;15.02;73.62
84374;BME280;74563;52.206;14.630;2024-03-02T05:43:12;100447.00;;;14.71;74.34
84374;BME280;74563;52.206;14.630;2024-03-02T05:45:37;100445.97;;;14.44;76.23
84374;BME280;74563;52.206;14.630;2024-03-02T05:48:02;100447.63;;;14.45;76.67
84374;BME280;74563;52.206;14.630;2024-03-02T05:50:28;100457.16;;;14.33;76.91
84374;BME280;74563;52.206;14.630;2024-03-02T05:52:53;100449.50;;;14.73;74.99
84374;BME280;74563;52.206;14.630;2024-03-02T05:55:18;100452.13;;;14.94;73.63
84374;BME280;74563;52.206;14.630;2024-03-02T05:57:43;100438.56;;;15.02;72.45
84374;BME280;74563;52.206;14.630;2024-03-02T06:00:09;100448.50;;;16.29;68.54
84374;BME280;74563;52.206;14.630;2024-03-02T06:02:34;100457.09;;;15.38;71.85
84374;BME280;74563;52.206;14.630;2024-03-02T06:05:02;100453.00;;;15.83;70.04
84374;BME280;74563;52.206;14.630;2024-03-02T06:07:29;100428.69;;;16.24;67.96
84374;BME280;74563;52.206;14.630;2024-03-02T06:09:54;100446.84;;;16.15;68.07
84374;BME280;74563;52.206;14.630;2024-03-02T06:12:19;100458.84;;;16.19;68.70
84374;BME280;74563;52.206;14.630;2024-03-02T06:14:45;100466.53;;;15.62;71.11
84374;BME280;74563;52.206;14.630;2024-03-02T06:17:10;100469.16;;;15.14;72.82
84374;BME280;74563;52.206;14.630;2024-03-02T06:19:35;100473.94;;;15.19;72.61
84374;BME280;74563;52.206;14.630;2024-03-02T06:22:01;100478.84;;;14.81;74.30
84374;BME280;74563;52.206;14.630;2024-03-02T06:24:26;100448.91;;;14.49;74.50
84374;BME280;74563;52.206;14.630;2024-03-02T06:26:51;100480.44;;;15.37;71.49
84374;BME280;74563;52.206;14.630;2024-03-02T06:29:17;100488.22;;;15.26;72.56
84374;BME280;74563;52.206;14.630;2024-03-02T06:31:42;100468.78;;;15.24;72.01
84374;BME280;74563;52.206;14.630;2024-03-02T06:34:07;100477.88;;;16.18;68.26
84374;BME280;74563;52.206;14.630;2024-03-02T06:36:34;100475.44;;;16.56;66.50
84374;BME280;74563;52.206;14.630;2024-03-02T06:38:59;100489.09;;;16.87;65.49
84374;BME280;74563;52.206;14.630;2024-03-02T06:41:24;100489.47;;;16.31;67.65
84374;BME280;74563;52.206;14.630;2024-03-02T06:43:51;100472.41;;;15.85;68.55
84374;BME280;74563;52.206;14.630;2024-03-02T06:46:24;100498.66;;;15.96;68.88
84374;BME280;74563;52.206;14.630;2024-03-02T06:48:49;100502.31;;;14.79;73.34
84374;BME280;74563;52.206;14.630;2024-03-02T06:51:14;100508.44;;;14.73;74.27
84374;BME280;74563;52.206;14.630;2024-03-02T06:53:40;100507.06;;;14.55;75.41
84374;BME280;74563;52.206;14.630;2024-03-02T06:56:07;100510.75;;;14.76;74.56
84374;BME280;74563;52.206;14.630;2024-03-02T06:58:32;100507.59;;;15.28;72.39
84374;BME280;74563;52.206;14.630;2024-03-02T07:00:57;100510.69;;;15.59;69.99
84374;BME280;74563;52.206;14.630;2024-03-02T07:03:23;100512.84;;;15.08;73.02
84374;BME280;74563;52.206;14.630;2024-03-02T07:05:48;100509.84;;;15.59;70.61
84374;BME280;74563;52.206;14.630;2024-03-02T07:08:13;100480.91;;;16.08;68.71
84374;BME280;74563;52.206;14.630;2024-03-02T07:10:38;100496.69;;;16.24;68.04
84374;BME280;74563;52.206;14.630;2024-03-02T07:13:03;100494.78;;;16.18;68.29
84374;BME280;74563;52.206;14.630;2024-03-02T07:15:29;100501.84;;;16.39;67.03
84374;BME280;74563;52.206;14.630;2024-03-02T07:18:13;100496.66;;;16.18;68.19
84374;BME280;74563;52.206;14.630;2024-03-02T07:20:38;100503.94;;;15.76;69.67
84374;BME280;74563;52.206;14.630;2024-03-02T07:23:04;100502.69;;;16.46;67.27
84374;BME280;74563;52.206;14.630;2024-03-02T07:25:29;100516.72;;;14.99;73.18
84374;BME280;74563;52.206;14.630;2024-03-02T07:27:54;100495.25;;;15.27;72.15
84374;BME280;74563;52.206;14.630;2024-03-02T07:30:20;100515.88;;;15.61;70.77
84374;BME280;74563;52.206;14.630;2024-03-02T07:32:45;100514.19;;;16.07;68.84
84374;BME280;74563;52.206;14.630;2024-03-02T07:35:14;100519.31;;;15.95;69.58
84374;BME280;74563;52.206;14.630;2024-03-02T07:37:41;100526.38;;;15.62;70.70
84374;BME280;74563;52.206;14.630;2024-03-02T07:40:07;100486.28;;;16.01;68.26
84374;BME280;74563;52.206;14.630;2024-03-02T07:42:36;100514.91;;;15.75;70.00
84374;BME280;74563;52.206;14.630;2024-03-02T07:45:01;100528.81;;;15.98;69.37
84374;BME280;74563;52.206;14.630;2024-03-02T07:47:26;100510.47;;;16.15;68.24
84374;BME280;74563;52.206;14.630;2024-03-02T07:49:52;100536.03;;;16.71;66.74
84374;BME280;74563;52.206;14.630;2024-03-02T07:52:17;100526.72;;;17.13;64.55
84374;BME280;74563;52.206;14.630;2024-03-02T07:54:42;100552.47;;;16.29;67.36
84374;BME280;74563;52.206;14.630;2024-03-02T07:57:07;100548.69;;;15.63;70.64
84374;BME280;74563;52.206;14.630;2024-03-02T07:59:33;100556.97;;;15.33;72.60
84374;BME280;74563;52.206;14.630;2024-03-02T08:01:58;100545.13;;;17.29;64.79
84374;BME280;74563;52.206;14.630;2024-03-02T08:04:24;100549.47;;;16.71;65.97
84374;BME280;74563;52.206;14.630;2024-03-02T08:06:49;100553.94;;;16.31;67.38
84374;BME280;74563;52.206;14.630;2024-03-02T08:09:14;100545.97;;;16.71;66.32
84374;BME280;74563;52.206;14.630;2024-03-02T08:11:40;100551.44;;;16.23;68.29
84374;BME280;74563;52.206;14.630;2024-03-02T08:14:05;100555.56;;;15.37;72.10
84374;BME280;74563;52.206;14.630;2024-03-02T08:16:30;100563.88;;;15.21;73.44
84374;BME280;74563;52.206;14.630;2024-03-02T08:18:55;100568.91;;;15.03;74.11
84374;BME280;74563;52.206;14.630;2024-03-02T08:21:23;100561.09;;;14.80;74.90
84374;BME280;74563;52.206;14.630;2024-03-02T08:23:48;100555.78;;;14.87;74.67
84374;BME280;74563;52.206;14.630;2024-03-02T08:26:14;100554.63;;;14.75;74.89
84374;BME280;74563;52.206;14.630;2024-03-02T08:28:39;100552.38;;;14.99;74.18
84374;BME280;74563;52.206;14.630;2024-03-02T08:31:06;100574.38;;;15.16;73.58
84374;BME280;74563;52.206;14.630;2024-03-02T08:33:31;100570.28;;;15.20;73.40
84374;BME280;74563;52.206;14.630;2024-03-02T08:35:57;100566.19;;;15.86;70.30
84374;BME280;74563;52.206;14.630;2024-03-02T08:38:22;100574.66;;;15.00;74.24
84374;BME280;74563;52.206;14.630;2024-03-02T08:40:48;100567.53;;;15.41;71.80
84374;BME280;74563;52.206;14.630;2024-03-02T08:43:14;100570.09;;;15.22;72.73
84374;BME280;74563;52.206;14.630;2024-03-02T08:45:40;100577.63;;;15.67;70.73
84374;BME280;74563;52.206;14.630;2024-03-02T08:48:07;100582.81;;;15.41;71.49
84374;BME280;74563;52.206;14.630;2024-03-02T08:50:33;100578.44;;;15.61;71.24
84374;BME280;74563;52.206;14.630;2024-03-02T08:52:58;100569.63;;;16.21;68.22
84374;BME280;74563;52.206;14.630;2024-03-02T08:55:24;100570.47;;;16.28;67.87
84374;BME280;74563;52.206;14.630;2024-03-02T08:57:49;100543.72;;;15.60;69.76
84374;BME280;74563;52.206;14.630;2024-03-02T09:00:15;100583.81;;;16.09;69.48
84374;BME280;74563;52.206;14.630;2024-03-02T09:02:43;100588.03;;;16.31;68.14
84374;BME280;74563;52.206;14.630;2024-03-02T09:05:09;100573.19;;;16.48;67.50
84374;BME280;74563;52.206;14.630;2024-03-02T09:07:34;100584.47;;;16.11;68.76
84374;BME280;74563;52.206;14.630;2024-03-02T09:10:00;100588.00;;;15.77;69.91
84374;BME280;74563;52.206;14.630;2024-03-02T09:12:25;100590.69;;;16.18;68.04
84374;BME280;74563;52.206;14.630;2024-03-02T09:14:50;100591.69;;;16.10;68.67
84374;BME280;74563;52.206;14.630;2024-03-02T09:17:15;100589.53;;;15.51;71.25
84374;BME280;74563;52.206;14.630;2024-03-02T09:19:40;100587.34;;;16.83;66.22
84374;BME280;74563;52.206;14.630;2024-03-02T09:22:06;100587.75;;;17.59;63.65
84374;BME280;74563;52.206;14.630;2024-03-02T09:24:31;100588.13;;;17.69;62.24
84374;BME280;74563;52.206;14.630;2024-03-02T09:26:58;100587.56;;;17.08;63.91
84374;BME280;74563;52.206;14.630;2024-03-02T09:29:23;100594.78;;;17.46;63.70
84374;BME280;74563;52.206;14.630;2024-03-02T09:31:48;100585.81;;;17.92;61.73
84374;BME280;74563;52.206;14.630;2024-03-02T09:34:15;100591.38;;;18.79;59.10
84374;BME280;74563;52.206;14.630;2024-03-02T09:36:41;100589.72;;;18.78;59.08
84374;BME280;74563;52.206;14.630;2024-03-02T09:39:07;100569.91;;;17.51;62.57
84374;BME280;74563;52.206;14.630;2024-03-02T09:41:35;100578.03;;;17.58;62.42
84374;BME280;74563;52.206;14.630;2024-03-02T09:44:00;100593.28;;;18.34;59.93
84374;BME280;74563;52.206;14.630;2024-03-02T09:46:26;100599.53;;;17.51;62.73
84374;BME280;74563;52.206;14.630;2024-03-02T09:48:51;100592.44;;;17.96;60.86
84374;BME280;74563;52.206;14.630;2024-03-02T09:51:16;100601.47;;;18.08;59.92
84374;BME280;74563;52.206;14.630;2024-03-02T09:53:44;100595.69;;;18.04;60.29
84374;BME280;74563;52.206;14.630;2024-03-02T09:56:10;100611.25;;;16.51;65.08
84374;BME280;74563;52.206;14.630;2024-03-02T09:58:36;100614.88;;;17.44;62.42
84374;BME280;74563;52.206;14.630;2024-03-02T10:01:01;100582.59;;;17.31;62.08
84374;BME280;74563;52.206;14.630;2024-03-02T10:03:26;100613.41;;;16.95;62.58
84374;BME280;74563;52.206;14.630;2024-03-02T10:05:54;100616.91;;;17.81;60.23
84374;BME280;74563;52.206;14.630;2024-03-02T10:08:19;100616.97;;;17.22;61.90
84374;BME280;74563;52.206;14.630;2024-03-02T10:10:44;100619.25;;;17.32;61.55
84374;BME280;74563;52.206;14.630;2024-03-02T10:13:10;100608.03;;;16.89;63.16
84374;BME280;74563;52.206;14.630;2024-03-02T10:15:37;100592.69;;;17.68;60.22
84374;BME280;74563;52.206;14.630;2024-03-02T10:18:04;100618.00;;;17.15;62.02
84374;BME280;74563;52.206;14.630;2024-03-02T10:20:29;100606.16;;;17.62;60.87
84374;BME280;74563;52.206;14.630;2024-03-02T10:22:55;100617.22;;;18.11;59.06
84374;BME280;74563;52.206;14.630;2024-03-02T10:25:33;100608.88;;;18.26;58.28
84374;BME280;74563;52.206;14.630;2024-03-02T10:27:59;100605.53;;;18.75;56.69
84374;BME280;74563;52.206;14.630;2024-03-02T10:30:25;100598.31;;;19.86;nan
84374;BME280;74563;52.206;14.630;2024-03-02T10:32:52;100597.91;;;19.21;54.97
84374;BME280;74563;52.206;14.630;2024-03-02T10:35:19;100609.59;;;18.52;58.04
84374;BME280;74563;52.206;14.630;2024-03-02T10:37:44;100610.44;;;18.46;58.16
84374;BME280;74563;52.206;14.630;2024-03-02T10:40:13;100582.19;;;18.49;57.22
84374;BME280;74563;52.206;14.630;2024-03-02T10:42:43;100607.53;;;18.55;58.00
84374;BME280;74563;52.206;14.630;2024-03-02T10:45:09;100604.84;;;17.97;59.27
84374;BME280;74563;52.206;14.630;2024-03-02T10:47:37;100601.69;;;18.13;58.96
84374;BME280;74563;52.206;14.630;2024-03-02T10:50:04;100589.56;;;17.84;59.55
84374;BME280;74563;52.206;14.630;2024-03-02T10:52:37;100617.28;;;16.60;64.69
84374;BME280;74563;52.206;14.630;2024-03-02T10:55:03;100613.88;;;17.12;63.31
84374;BME280;74563;52.206;14.630;2024-03-02T10:57:48;100585.50;;;16.90;63.85
84374;BME280;74563;52.206;14.630;2024-03-02T11:00:15;100616.31;;;17.33;62.57
84374;BME280;74563;52.206;14.630;2024-03-02T11:02:46;100604.31;;;18.26;58.86
84374;BME280;74563;52.206;14.630;2024-03-02T11:05:24;100602.78;;;18.43;58.83
84374;BME280;74563;52.206;14.630;2024-03-02T11:07:53;100604.72;;;17.66;61.06
84374;BME280;74563;52.206;14.630;2024-03-02T11:10:22;100601.59;;;19.27;55.70
84374;BME280;74563;52.206;14.630;2024-03-02T11:12:59;100588.97;;;18.96;55.98
84374;BME280;74563;52.206;14.630;2024-03-02T11:15:25;100589.38;;;18.30;57.40
84374;BME280;74563;52.206;14.630;2024-03-02T11:17:53;100585.38;;;17.95;58.53
84374;BME280;74563;52.206;14.630;2024-03-02T11:20:18;100573.56;;;18.40;57.65
84374;BME280;74563;52.206;14.630;2024-03-02T11:22:45;100587.38;;;18.88;55.71
84374;BME280;74563;52.206;14.630;2024-03-02T11:25:23;100589.47;;;18.86;55.68
84374;BME280;74563;52.206;14.630;2024-03-02T11:32:59;100581.78;;;19.33;54.25
84374;BME280;74563;52.206;14.630;2024-03-02T11:35:25;100581.19;;;19.31;54.47
84374;BME280;74563;52.206;14.630;2024-03-02T11:37:51;100563.81;;;17.95;57.10
84374;BME280;74563;52.206;14.630;2024-03-02T11:40:22;100583.75;;;18.70;55.50
84374;BME280;74563;52.206;14.630;2024-03-02T11:42:47;100572.91;;;18.38;57.00
84374;BME280;74563;52.206;14.630;2024-03-02T11:45:16;100575.16;;;18.10;56.74
84374;BME280;74563;52.206;14.630;2024-03-02T11:47:46;100564.97;;;18.57;54.24
84374;BME280;74563;52.206;14.630;2024-03-02T11:50:15;100579.34;;;18.44;54.74
84374;BME280;74563;52.206;14.630;2024-03-02T11:52:40;100491.13;;;17.88;54.46
84374;BME280;74563;52.206;14.630;2024-03-02T11:55:07;100540.28;;;19.88;50.73
84374;BME280;74563;52.206;14.630;2024-03-02T11:57:34;100564.88;;;20.35;49.05
84374;BME280;74563;52.206;14.630;2024-03-02T12:00:00;100553.88;;;19.82;50.64
84374;BME280;74563;52.206;14.630;2024-03-02T12:02:28;100543.03;;;20.18;49.97
84374;BME280;74563;52.206;14.630;2024-03-02T12:04:54;100567.69;;;20.70;49.25
84374;BME280;74563;52.206;14.630;2024-03-02T12:07:22;100557.56;;;20.06;49.98
84374;BME280;74563;52.206;14.630;2024-03-02T12:09:49;100536.31;;;19.73;50.69
84374;BME280;74563;52.206;14.630;2024-03-02T12:12:20;100571.44;;;19.05;52.77
84374;BME280;74563;52.206;14.630;2024-03-02T12:14:51;100556.69;;;19.32;52.18
84374;BME280;74563;52.206;14.630;2024-03-02T12:17:18;100562.09;;;18.83;53.38
84374;BME280;74563;52.206;14.630;2024-03-02T12:19:44;100561.94;;;19.70;51.19
84374;BME280;74563;52.206;14.630;2024-03-02T12:22:11;100560.66;;;20.21;50.30
84374;BME280;74563;52.206;14.630;2024-03-02T12:24:36;100556.88;;;20.70;48.64
84374;BME280;74563;52.206;14.630;2024-03-02T12:27:03;100543.97;;;19.76;50.67
84374;BME280;74563;52.206;14.630;2024-03-02T12:29:29;100555.63;;;19.94;50.72
84374;BME280;74563;52.206;14.630;2024-03-02T12:31:55;100546.84;;;20.59;48.81
84374;BME280;74563;52.206;14.630;2024-03-02T12:34:21;100524.88;;;20.67;49.26
84374;BME280;74563;52.206;14.630;2024-03-02T12:36:46;100546.47;;;19.59;51.24
84374;BME280;74563;52.206;14.630;2024-03-02T12:39:17;100539.47;;;19.88;51.36
84374;BME280;74563;52.206;14.630;2024-03-02T12:41:43;100559.28;;;18.96;53.14
84374;BME280;74563;52.206;14.630;2024-03-02T12:44:08;100544.75;;;20.61;49.37